Have a Safe July 4th! 

Flight Track Log - Related Links

Times and Time Zones

All times are in EDT time to prevent confusion due to time zone crossing. See the JZA7902 flight status page for this flight to view local times or setup timezone preferences in your user account.

Time Position Orientation Groundspeed Altitude Reporting Facility
EDT Latitude Longitude Course Direction KTS MPH feet Rate Location/Type
Wed 06:40:58 AM 41.4003 -81.8675 261° West 112 129 1,900  Level Cleveland Center
Wed 06:41:48 AM 41.3958 -81.9033 337° Northwest 130 150 3,100 1,582 Climbing Cleveland Center
Wed 06:42:29 AM 41.4164 -81.9150 12° North 140 161 4,300 1,100 Climbing Cleveland Center
Wed 06:43:48 AM 41.4792 -81.8969 50° Northeast 174 200 5,300 1,122 Climbing Cleveland Center
Wed 06:44:48 AM 41.5175 -81.8367 46° Northeast 186 214 6,900 1,450 Climbing Cleveland Center
Wed 06:45:48 AM 41.5575 -81.7819 44° Northeast 199 229 8,200 1,250 Climbing Cleveland Center
Wed 06:46:48 AM 41.6000 -81.7272 43° Northeast 204 235 9,400 1,100 Climbing Cleveland Center
Wed 06:47:48 AM 41.6400 -81.6778 45° Northeast 204 235 10,400 1,100 Climbing Cleveland Center
Wed 06:48:48 AM 41.6822 -81.6203 42° Northeast 204 235 11,600 1,140 Climbing Cleveland Center
Wed 06:49:49 AM 41.7306 -81.5625 47° Northeast 212 244 12,700 1,150 Climbing Cleveland Center
Wed 06:50:48 AM 41.7750 -81.4992 21° North 227 261 13,900 1,160 Climbing Cleveland Center
Wed 06:51:48 AM 41.8272 -81.4719 10° North 208 239 15,000 550 Climbing Cleveland Center
Wed 06:52:48 AM 41.8942 -81.4561 11° North 220 253 15,000  Level Cleveland Center
Wed 06:53:48 AM 41.9714 -81.4350 11° North 243 280 15,000 50 Level Cleveland Center
Wed 06:54:48 AM 42.0444 -81.4164 10° North 262 302 15,100 50 Climbing Cleveland Center
Wed 06:55:48 AM 42.1197 -81.3978 12° North 267 307 15,100  Level Cleveland Center
Wed 06:56:48 AM 42.1969 -81.3764 11° North 272 313 15,100 -50 Level Cleveland Center
Wed 06:57:48 AM 42.2722 -81.3575 12° North 278 320 15,000  Descending Cleveland Center
Wed 06:58:48 AM 42.3494 -81.3361 11° North 278 320 15,100 50 Climbing Cleveland Center
Wed 06:59:48 AM 42.4244 -81.3172 12° North 278 320 15,100 -50 Level Cleveland Center
Wed 07:00:48 AM 42.5017 -81.2956 10° North 278 320 15,000 -50 Descending Cleveland Center
Wed 07:01:48 AM 42.5769 -81.2767 15° North 278 320 15,000  Level Cleveland Center
Wed 07:02:48 AM 42.6458 -81.2522 North 278 320 15,000 -350 Level Cleveland Center
Wed 07:03:48 AM 42.7231 -81.2361 24° Northeast 278 320 14,300 -850 Descending Cleveland Center
Wed 07:04:48 AM 42.8003 -81.1886 50° Northeast 286 329 13,300 -767 Descending Cleveland Center
Wed 07:06:40 AM 42.9167 -81.0000 50° Northeast 330 380 12,100 -643 Descending Toronto Center

Login

Don't have an account? Register now (free) for customized features, flight alerts, and more!